Time;durP1;ratioP1;P1;durP2;ratioP2;P2;SDS_P1;SDS_P2;PMS_P1;PMS_P2;Temp;Humidity;BMP_temperature;BMP_pressure;BME280_temperature;BME280_humidity;BME280_pressure;Samples;Min_cycle;Max_cycle;Signal;HPM_P1;HPM_P2
2024/04/02 00:00:08;;;;;;;1.60;1.00;;;;;;;2.29;100.00;91729.88;5033335;28;20022;-73
2024/04/02 00:02:34;;;;;;;1.25;1.00;;;;;;;2.29;100.00;91727.28;5032760;28;20041;-74
2024/04/02 00:05:00;;;;;;;0.85;0.82;;;;;;;2.28;100.00;91725.75;5032622;28;20021;-74
2024/04/02 00:07:26;;;;;;;1.23;0.90;;;;;;;2.27;100.00;91731.94;5032713;28;20087;-74
2024/04/02 00:09:51;;;;;;;1.35;0.80;;;;;;;2.25;100.00;91734.00;5032785;28;20025;-74
2024/04/02 00:12:17;;;;;;;0.80;0.80;;;;;;;2.26;100.00;91743.28;5032823;28;20061;-74
2024/04/02 00:14:42;;;;;;;0.70;0.70;;;;;;;2.24;100.00;91750.53;5014923;28;20045;-74
2024/04/02 00:17:08;;;;;;;1.52;0.88;;;;;;;2.21;100.00;91745.09;5031811;28;20127;-74
2024/04/02 00:19:33;;;;;;;1.08;0.90;;;;;;;2.18;100.00;91741.19;5032195;28;20078;-72
2024/04/02 00:21:59;;;;;;;1.05;0.93;;;;;;;2.24;100.00;91740.19;5032778;28;20046;-74
2024/04/02 00:24:25;;;;;;;2.63;0.90;;;;;;;2.27;100.00;91744.06;5014790;28;20457;-74
2024/04/02 00:26:50;;;;;;;0.82;0.80;;;;;;;2.31;100.00;91752.09;5032325;28;20034;-74
2024/04/02 00:29:17;;;;;;;0.73;0.73;;;;;;;2.29;100.00;91747.94;5032194;28;20387;-74
2024/04/02 00:31:43;;;;;;;0.63;0.63;;;;;;;2.28;100.00;91756.75;5012586;28;20491;-74
2024/04/02 00:34:09;;;;;;;0.80;0.80;;;;;;;2.29;100.00;91765.25;5030913;28;20051;-73
2024/04/02 00:36:34;;;;;;;1.30;0.90;;;;;;;2.25;100.00;91772.75;5014709;28;20123;-73
2024/04/02 00:39:00;;;;;;;1.45;0.90;;;;;;;2.25;100.00;91775.34;5026597;28;20029;-74
2024/04/02 00:41:25;;;;;;;0.77;0.77;;;;;;;2.24;100.00;91781.50;5012480;28;20041;-72
2024/04/02 00:43:51;;;;;;;1.10;0.80;;;;;;;2.29;100.00;91784.09;5026956;28;20025;-74
2024/04/02 00:46:17;;;;;;;0.80;0.80;;;;;;;2.32;100.00;91787.22;5032339;28;20041;-74
2024/04/02 00:48:42;;;;;;;0.70;0.70;;;;;;;2.32;100.00;91793.19;5032195;28;20463;-74
2024/04/02 00:51:08;;;;;;;0.98;0.90;;;;;;;2.32;100.00;91792.38;5031791;28;20037;-74
2024/04/02 00:53:34;;;;;;;1.10;0.80;;;;;;;2.33;100.00;91792.13;5031658;28;20475;-73
2024/04/02 00:56:01;;;;;;;1.23;1.10;;;;;;;2.34;100.00;91785.16;4997654;28;20041;-73
2024/04/02 00:58:28;;;;;;;1.13;0.95;;;;;;;2.35;100.00;91786.72;5031796;28;20116;-74
2024/04/02 01:00:56;;;;;;;0.82;0.82;;;;;;;2.35;100.00;91787.50;5031712;28;20040;-74
2024/04/02 01:03:21;;;;;;;0.80;0.80;;;;;;;2.36;100.00;91789.03;5031403;28;20116;-74
2024/04/02 01:05:48;;;;;;;0.80;0.80;;;;;;;2.36;100.00;91790.84;5014246;28;20566;-75
2024/04/02 01:08:13;;;;;;;0.75;0.75;;;;;;;2.33;100.00;91794.72;5032005;28;20017;-74
2024/04/02 01:10:39;;;;;;;0.80;0.80;;;;;;;2.34;100.00;91798.84;5031716;28;20407;-74
2024/04/02 01:13:05;;;;;;;0.70;0.70;;;;;;;2.35;100.00;91797.84;5031298;28;20033;-74
2024/04/02 01:15:31;;;;;;;1.10;1.00;;;;;;;2.36;100.00;91801.19;5031529;28;20056;-73
2024/04/02 01:17:56;;;;;;;0.80;0.80;;;;;;;2.35;100.00;91803.00;5031065;28;20049;-73
2024/04/02 01:20:22;;;;;;;1.00;0.90;;;;;;;2.32;100.00;91800.13;5031026;28;20079;-73
2024/04/02 01:22:49;;;;;;;1.45;0.90;;;;;;;2.28;100.00;91802.47;5031361;28;20104;-74
2024/04/02 01:25:20;;;;;;;0.80;0.80;;;;;;;2.32;100.00;91802.72;5031242;28;20116;-74
2024/04/02 01:27:45;;;;;;;0.82;0.82;;;;;;;2.32;100.00;91806.09;5013500;28;20033;-72
2024/04/02 01:30:11;;;;;;;0.68;0.68;;;;;;;2.41;100.00;91807.16;5031115;28;20061;-73
2024/04/02 01:32:37;;;;;;;0.70;0.70;;;;;;;2.46;100.00;91811.56;5030782;28;20045;-72
2024/04/02 01:35:02;;;;;;;1.98;0.95;;;;;;;2.47;100.00;91806.13;5031122;28;20033;-74
2024/04/02 01:37:28;;;;;;;0.80;0.80;;;;;;;2.47;100.00;91800.97;5013491;28;20403;-75
2024/04/02 01:39:54;;;;;;;0.85;0.85;;;;;;;2.45;100.00;91803.03;5030787;28;20033;-74
2024/04/02 01:42:19;;;;;;;0.80;0.80;;;;;;;2.46;100.00;91803.81;5030801;28;20037;-74
2024/04/02 01:44:45;;;;;;;1.05;0.90;;;;;;;2.45;100.00;91803.03;4996692;28;20029;-74
2024/04/02 01:47:11;;;;;;;0.73;0.73;;;;;;;2.50;100.00;91802.28;5030897;28;20560;-74
2024/04/02 01:49:36;;;;;;;0.82;0.82;;;;;;;2.55;100.00;91801.53;5030979;28;20406;-74
2024/04/02 01:52:02;;;;;;;1.10;1.00;;;;;;;2.54;100.00;91799.97;5030713;28;20033;-73
2024/04/02 01:54:27;;;;;;;0.75;0.75;;;;;;;2.51;100.00;91793.50;5030479;28;20394;-74
2024/04/02 01:56:53;;;;;;;0.80;0.80;;;;;;;2.52;100.00;91782.13;5030571;28;20053;-73
2024/04/02 01:59:19;;;;;;;1.38;1.13;;;;;;;2.68;100.00;91795.91;5029094;28;20033;-72
2024/04/02 02:01:44;;;;;;;0.80;0.80;;;;;;;2.95;100.00;91789.72;5030442;28;20486;-74
2024/04/02 02:04:10;;;;;;;1.33;0.90;;;;;;;2.88;100.00;91785.59;5030215;28;20025;-74
2024/04/02 02:06:35;;;;;;;0.85;0.80;;;;;;;2.89;100.00;91789.72;5030315;28;20091;-73
2024/04/02 02:09:02;;;;;;;0.80;0.80;;;;;;;2.90;100.00;91782.75;5030660;28;20056;-73
2024/04/02 02:11:27;;;;;;;0.60;0.60;;;;;;;3.02;100.00;91792.88;5030393;28;20037;-74
2024/04/02 02:13:53;;;;;;;0.95;0.95;;;;;;;3.10;100.00;91792.34;5030211;28;20021;-74
2024/04/02 02:16:19;;;;;;;1.02;0.93;;;;;;;3.40;100.00;91801.16;5030158;28;20044;-73
2024/04/02 02:18:44;;;;;;;0.85;0.85;;;;;;;3.41;100.00;91806.09;5011680;28;20053;-74
2024/04/02 02:21:10;;;;;;;0.70;0.70;;;;;;;3.32;100.00;91807.63;5030119;28;20502;-74
2024/04/02 02:23:35;;;;;;;0.75;0.75;;;;;;;3.33;100.00;91816.94;5030610;28;20036;-74
2024/04/02 02:26:02;;;;;;;0.80;0.80;;;;;;;3.25;100.00;91815.63;5024488;28;20045;-74
2024/04/02 02:28:27;;;;;;;0.80;0.80;;;;;;;3.15;100.00;91825.19;4992736;28;20042;-74
2024/04/02 02:30:53;;;;;;;0.80;0.80;;;;;;;3.05;100.00;91831.13;5019374;28;20086;-74
2024/04/02 02:33:18;;;;;;;0.90;0.90;;;;;;;3.00;100.00;91824.13;5029912;28;20049;-72
2024/04/02 02:35:52;;;;;;;0.80;0.80;;;;;;;2.92;100.00;91827.22;5030186;28;20045;-74
2024/04/02 02:38:18;;;;;;;0.82;0.80;;;;;;;2.87;100.00;91824.63;5029839;28;20518;-74
2024/04/02 02:40:43;;;;;;;1.15;0.90;;;;;;;2.83;100.00;91828.75;5029753;28;20064;-74
2024/04/02 02:43:09;;;;;;;0.70;0.70;;;;;;;2.80;100.00;91834.44;5029627;28;20399;-74
2024/04/02 02:45:34;;;;;;;1.42;0.70;;;;;;;2.77;100.00;91837.50;5007980;28;20044;-73
2024/04/02 02:48:00;;;;;;;0.77;0.77;;;;;;;2.71;100.00;91845.25;5007000;28;20515;-74
2024/04/02 02:50:26;;;;;;;0.70;0.70;;;;;;;2.66;100.00;91845.25;5010303;28;20412;-74
2024/04/02 02:52:52;;;;;;;0.80;0.80;;;;;;;2.62;100.00;91849.34;5024109;28;20495;-74
2024/04/02 02:55:19;;;;;;;0.70;0.70;;;;;;;2.57;100.00;91845.97;5029763;28;20037;-74
2024/04/02 02:57:45;;;;;;;0.65;0.65;;;;;;;2.54;100.00;91846.47;5029555;28;20068;-74
2024/04/02 03:00:12;;;;;;;1.05;0.90;;;;;;;2.56;100.00;91847.00;5029561;28;20037;-74
2024/04/02 03:02:37;;;;;;;0.93;0.85;;;;;;;2.65;100.00;91838.50;5029794;28;20116;-74
2024/04/02 03:05:03;;;;;;;1.00;0.80;;;;;;;2.65;100.00;91843.66;5029566;28;20129;-73
2024/04/02 03:07:29;;;;;;;0.70;0.70;;;;;;;2.69;100.00;91849.88;5029913;28;20111;-74
2024/04/02 03:09:55;;;;;;;0.90;0.80;;;;;;;2.74;100.00;91843.19;5012088;28;20077;-74
2024/04/02 03:12:20;;;;;;;1.15;0.90;;;;;;;2.71;100.00;91858.16;5029453;28;20465;-74
2024/04/02 03:14:47;;;;;;;1.58;0.80;;;;;;;2.87;100.00;91855.66;5011706;28;20100;-74
2024/04/02 03:17:12;;;;;;;1.65;1.02;;;;;;;2.91;100.00;91859.28;5028852;28;20405;-74
2024/04/02 03:19:38;;;;;;;1.17;0.90;;;;;;;2.90;100.00;91857.72;5029458;28;20037;-74
2024/04/02 03:22:03;;;;;;;0.88;0.85;;;;;;;2.84;100.00;91867.28;5029483;28;20053;-74
2024/04/02 03:24:29;;;;;;;0.70;0.70;;;;;;;2.80;100.00;91863.63;5011875;28;20021;-74
2024/04/02 03:26:55;;;;;;;1.13;0.77;;;;;;;2.89;100.00;91874.28;5030609;28;20042;-76
2024/04/02 03:29:20;;;;;;;0.90;0.90;;;;;;;2.89;100.00;91882.03;5030209;28;20065;-74
2024/04/02 03:31:49;;;;;;;0.73;0.73;;;;;;;2.85;100.00;91884.31;5033375;28;20132;-74
2024/04/02 03:34:14;;;;;;;1.15;0.90;;;;;;;2.80;100.00;91878.38;5032755;28;20080;-74
2024/04/02 03:36:40;;;;;;;0.80;0.80;;;;;;;2.77;100.00;91879.66;5033319;28;20763;-76
2024/04/02 03:39:06;;;;;;;1.38;0.90;;;;;;;2.72;100.00;91879.63;5033447;28;20056;-73
2024/04/02 03:41:32;;;;;;;1.27;1.00;;;;;;;2.66;100.00;91878.06;5033218;28;20060;-76
2024/04/02 03:43:57;;;;;;;1.20;1.10;;;;;;;2.61;100.00;91876.25;5015923;28;20509;-74
2024/04/02 03:46:23;;;;;;;1.63;1.02;;;;;;;2.56;100.00;91880.59;5033064;28;20041;-74
2024/04/02 03:48:49;;;;;;;0.93;0.80;;;;;;;2.50;100.00;91887.56;5033425;28;20077;-72
2024/04/02 03:51:18;;;;;;;0.90;0.90;;;;;;;2.46;100.00;91886.50;5015398;28;20044;-73
2024/04/02 03:53:43;;;;;;;0.98;0.90;;;;;;;2.42;100.00;91883.63;5028083;28;20038;-74
2024/04/02 03:56:09;;;;;;;0.88;0.88;;;;;;;2.41;100.00;91889.03;5013196;28;20038;-76
2024/04/02 03:58:35;;;;;;;0.70;0.70;;;;;;;2.40;100.00;91888.25;5031626;28;20035;-74
2024/04/02 04:01:04;;;;;;;0.80;0.80;;;;;;;2.40;100.00;91884.91;5032794;28;20091;-74
2024/04/02 04:03:30;;;;;;;0.80;0.80;;;;;;;2.38;100.00;91885.16;5033039;28;20056;-75
2024/04/02 04:06:03;;;;;;;1.05;0.90;;;;;;;2.36;100.00;91887.19;5033218;28;20514;-76
2024/04/02 04:08:30;;;;;;;4.85;1.73;;;;;;;2.38;100.00;91889.53;5032633;28;20506;-74
2024/04/02 04:10:56;;;;;;;2.92;1.50;;;;;;;2.39;100.00;91891.13;5032821;28;20037;-74
2024/04/02 04:13:22;;;;;;;4.07;1.50;;;;;;;2.38;100.00;91889.53;5032242;28;20039;-73
2024/04/02 04:16:07;;;;;;;4.63;1.80;;;;;;;2.37;100.00;91891.34;5032188;28;20045;-74
2024/04/02 04:18:33;;;;;;;6.82;2.25;;;;;;;2.35;100.00;91890.06;5032204;28;20033;-74
2024/04/02 04:21:00;;;;;;;8.77;2.95;;;;;;;2.34;100.00;91894.41;5014527;28;20060;-74
2024/04/02 04:23:26;;;;;;;8.93;2.95;;;;;;;2.35;100.00;91897.81;5014855;28;20030;-74
2024/04/02 04:26:03;;;;;;;4.07;1.70;;;;;;;2.38;100.00;91895.47;5032661;28;20040;-74
2024/04/02 04:28:29;;;;;;;3.17;1.50;;;;;;;2.41;100.00;91899.38;5014722;28;20053;-72
2024/04/02 04:30:56;;;;;;;3.42;1.30;;;;;;;2.61;100.00;91904.66;5032375;28;20124;-74
2024/04/02 04:33:23;;;;;;;1.88;0.95;;;;;;;2.81;100.00;91906.53;5029203;28;20108;-74
2024/04/02 04:35:49;;;;;;;1.48;0.95;;;;;;;2.97;100.00;91904.00;5032008;28;20097;-73
2024/04/02 04:38:15;;;;;;;3.33;1.05;;;;;;;2.91;100.00;91908.41;5032196;28;20437;-74
2024/04/02 04:40:42;;;;;;;0.82;0.82;;;;;;;2.89;100.00;91905.28;5031762;28;20402;-74
2024/04/02 04:43:08;;;;;;;0.70;0.70;;;;;;;3.01;100.00;91923.16;5014186;28;20069;-74
2024/04/02 04:45:34;;;;;;;1.42;0.80;;;;;;;2.98;100.00;91921.88;5031751;28;20075;-74
2024/04/02 04:47:59;;;;;;;0.80;0.80;;;;;;;3.06;100.00;91918.00;5031834;28;20167;-74
2024/04/02 04:50:25;;;;;;;0.77;0.77;;;;;;;3.12;100.00;91925.53;5031966;28;20049;-74
2024/04/02 04:52:53;;;;;;;0.70;0.70;;;;;;;3.43;100.00;91919.69;5031928;28;20064;-74
2024/04/02 04:55:19;;;;;;;0.80;0.80;;;;;;;3.52;100.00;91924.09;5031547;28;20132;-74
2024/04/02 04:57:45;;;;;;;0.93;0.70;;;;;;;3.52;100.00;91926.69;5013827;28;20124;-75
2024/04/02 05:00:12;;;;;;;0.80;0.80;;;;;;;3.49;100.00;91934.97;5014110;28;20034;-75
2024/04/02 05:02:38;;;;;;;0.70;0.70;;;;;;;3.47;100.00;91942.19;5031149;28;20132;-75
2024/04/02 05:05:04;;;;;;;0.85;0.85;;;;;;;3.42;100.00;91943.97;5031141;28;20121;-73
2024/04/02 05:07:30;;;;;;;0.75;0.75;;;;;;;3.39;100.00;91945.28;5030709;28;20034;-75
2024/04/02 05:09:55;;;;;;;0.80;0.77;;;;;;;3.34;100.00;91942.69;5031156;28;20538;-75
2024/04/02 05:12:21;;;;;;;1.00;0.80;;;;;;;3.27;100.00;91955.09;5032148;28;20034;-75
2024/04/02 05:14:47;;;;;;;0.88;0.88;;;;;;;3.23;100.00;91961.78;5014285;28;20132;-76
2024/04/02 05:17:12;;;;;;;0.77;0.77;;;;;;;3.20;100.00;91965.66;5032343;28;20053;-78
2024/04/02 05:19:38;;;;;;;0.82;0.80;;;;;;;3.22;100.00;91970.56;5032902;28;20033;-78
2024/04/02 05:22:06;;;;;;;0.73;0.73;;;;;;;3.22;100.00;91970.56;5033062;28;20026;-76
2024/04/02 05:24:33;;;;;;;0.80;0.80;;;;;;;3.24;100.00;91978.84;5015505;28;20426;-77
2024/04/02 05:26:59;;;;;;;0.88;0.88;;;;;;;3.25;100.00;91975.25;5025282;28;20479;-78
2024/04/02 05:29:25;;;;;;;0.77;0.73;;;;;;;3.31;100.00;91974.22;4996092;28;20041;-78
2024/04/02 05:31:50;;;;;;;1.00;0.90;;;;;;;3.34;100.00;91976.31;5031235;28;20041;-77
2024/04/02 05:34:16;;;;;;;0.80;0.80;;;;;;;3.36;100.00;91984.59;5032502;28;20052;-77
2024/04/02 05:36:43;;;;;;;1.77;1.05;;;;;;;3.38;100.00;91981.75;5033352;28;20038;-78
2024/04/02 05:39:08;;;;;;;1.00;0.90;;;;;;;3.51;100.00;91987.25;5030300;28;20044;-78
2024/04/02 05:41:34;;;;;;;1.10;1.00;;;;;;;3.59;100.00;91990.38;5031129;28;20418;-77
2024/04/02 05:43:59;;;;;;;1.00;0.95;;;;;;;3.59;100.00;91998.91;5030644;28;20025;-78
2024/04/02 05:46:25;;;;;;;0.85;0.85;;;;;;;3.55;100.00;92001.22;5031432;28;20044;-78
2024/04/02 05:48:50;;;;;;;2.03;1.10;;;;;;;3.54;100.00;92001.47;5029921;28;20430;-77
2024/04/02 05:51:16;;;;;;;1.58;0.95;;;;;;;3.54;100.00;92010.03;5008356;28;20036;-76
2024/04/02 05:53:43;;;;;;;2.10;1.13;;;;;;;3.53;100.00;92011.06;5029639;28;20037;-77
2024/04/02 05:56:09;;;;;;;0.85;0.85;;;;;;;3.55;100.00;92003.78;5014017;28;20029;-77
2024/04/02 05:58:34;;;;;;;1.27;0.85;;;;;;;3.59;100.00;92013.66;5031057;28;20494;-77
2024/04/02 06:01:04;;;;;;;1.00;0.80;;;;;;;3.66;100.00;92021.97;5030495;28;20773;-77
2024/04/02 06:03:29;;;;;;;1.05;0.88;;;;;;;3.68;100.00;92028.44;5030939;28;20080;-75
2024/04/02 06:05:55;;;;;;;0.68;0.68;;;;;;;3.77;100.00;92033.91;5014193;28;20502;-77
2024/04/02 06:08:21;;;;;;;0.68;0.68;;;;;;;3.90;100.00;92037.81;5030936;28;20033;-75
2024/04/02 06:10:46;;;;;;;0.98;0.88;;;;;;;4.00;100.00;92042.25;5031148;28;20387;-77
2024/04/02 06:13:12;;;;;;;1.40;0.90;;;;;;;4.03;100.00;92039.13;5031136;28;20032;-77
2024/04/02 06:15:38;;;;;;;2.60;0.82;;;;;;;4.14;100.00;92043.28;5014708;28;20056;-77
2024/04/02 06:18:05;;;;;;;1.35;0.77;;;;;;;4.24;100.00;92043.31;5029972;28;20029;-77
2024/04/02 06:20:30;;;;;;;1.35;0.93;;;;;;;4.42;100.00;92054.22;5030855;28;20479;-77
2024/04/02 06:22:56;;;;;;;0.98;0.80;;;;;;;4.83;100.00;92054.97;5029896;28;20120;-77
2024/04/02 06:25:22;;;;;;;1.33;1.00;;;;;;;4.92;100.00;92058.59;5012998;28;20021;-76
2024/04/02 06:27:47;;;;;;;2.13;0.80;;;;;;;4.94;100.00;92063.53;5029433;28;20483;-77
2024/04/02 06:30:13;;;;;;;1.70;1.00;;;;;;;5.02;100.00;92063.00;5028155;28;20040;-75
2024/04/02 06:32:39;;;;;;;1.00;0.90;;;;;;;6.51;100.00;92071.00;5028729;28;20084;-77
2024/04/02 06:35:04;;;;;;;1.00;0.90;;;;;;;8.04;100.00;92062.75;5011900;28;20037;-78
2024/04/02 06:37:30;;;;;;;0.95;0.90;;;;;;;9.58;100.00;92061.19;5014557;28;20037;-77
2024/04/02 06:39:57;;;;;;;0.80;0.80;;;;;;;10.85;95.52;92070.09;5012376;28;20041;-78
2024/04/02 06:42:22;;;;;;;0.90;0.90;;;;;;;11.93;98.05;92067.44;5031205;28;20025;-78
2024/04/02 06:44:49;;;;;;;0.80;0.77;;;;;;;12.57;80.70;92062.50;5031389;28;20029;-76
2024/04/02 06:47:15;;;;;;;1.67;1.05;;;;;;;13.71;66.42;92060.50;5030553;28;20021;-76
2024/04/02 06:49:40;;;;;;;1.02;0.90;;;;;;;14.81;67.34;92065.03;5023602;28;20118;-79
2024/04/02 06:52:06;;;;;;;1.52;1.08;;;;;;;15.50;64.36;92058.38;5032072;28;20052;-78
2024/04/02 06:54:32;;;;;;;17.48;5.68;;;;;;;15.58;53.08;92058.28;5030232;28;20021;-77
2024/04/02 06:56:57;;;;;;;2.08;1.23;;;;;;;16.48;55.14;92049.72;5026292;28;20133;-78
2024/04/02 06:59:23;;;;;;;1.65;1.13;;;;;;;16.68;52.00;92056.75;5032581;28;20112;-79
2024/04/02 07:01:49;;;;;;;4.88;1.20;;;;;;;16.96;53.11;92056.81;5032220;28;20454;-78
2024/04/02 07:04:14;;;;;;;1.42;1.00;;;;;;;17.15;57.63;92058.84;5032767;28;20039;-79
2024/04/02 07:06:40;;;;;;;0.73;0.73;;;;;;;17.30;53.80;92057.34;5031396;28;20585;-79
2024/04/02 07:09:08;;;;;;;2.15;1.10;;;;;;;17.06;53.89;92063.50;5031836;28;20394;-78
2024/04/02 07:11:34;;;;;;;3.25;0.90;;;;;;;16.98;56.97;92061.78;5015070;28;20049;-77
2024/04/02 07:14:01;;;;;;;1.08;0.85;;;;;;;17.06;54.94;92063.50;5031599;28;20037;-77
2024/04/02 07:16:27;;;;;;;1.98;1.00;;;;;;;17.06;49.38;92069.56;5032703;28;20018;-76
2024/04/02 07:18:52;;;;;;;2.92;0.90;;;;;;;16.77;54.58;92059.25;5002121;28;20152;-78
2024/04/02 07:21:18;;;;;;;8.43;1.38;;;;;;;15.82;64.78;92075.25;5013641;28;20057;-77
2024/04/02 07:23:44;;;;;;;4.75;2.00;;;;;;;14.26;74.82;92072.03;5029487;28;20071;-76
2024/04/02 07:26:10;;;;;;;2.05;1.08;;;;;;;13.43;86.10;92081.16;5023002;28;20038;-77
2024/04/02 07:28:35;;;;;;;3.60;1.13;;;;;;;12.92;81.39;92083.50;5026406;28;20045;-77
2024/04/02 07:31:01;;;;;;;1.55;1.02;;;;;;;13.02;73.68;92083.19;5020069;28;20172;-75
2024/04/02 07:33:26;;;;;;;4.00;1.10;;;;;;;13.13;81.33;92083.66;5028031;28;20042;-77
2024/04/02 07:35:58;;;;;;;0.90;0.90;;;;;;;13.57;76.02;92089.63;5025384;28;20052;-76
2024/04/02 07:38:24;;;;;;;2.38;0.93;;;;;;;14.20;67.06;92086.44;5003971;28;20511;-75
2024/04/02 07:40:50;;;;;;;2.08;1.00;;;;;;;14.52;70.39;92087.66;5025587;28;20064;-78
2024/04/02 07:43:16;;;;;;;3.70;1.13;;;;;;;15.05;68.91;92093.38;5029574;28;20029;-77
2024/04/02 07:45:50;;;;;;;1.23;1.00;;;;;;;15.04;62.22;92095.25;5026724;28;20034;-77
2024/04/02 07:48:16;;;;;;;0.75;0.63;;;;;;;15.31;58.98;92101.84;5028568;28;20029;-77
2024/04/02 07:50:41;;;;;;;0.50;0.50;;;;;;;15.25;50.83;92099.72;5012633;28;20033;-77
2024/04/02 07:53:07;;;;;;;0.73;0.70;;;;;;;15.41;48.77;92105.91;5029725;28;20069;-77
2024/04/02 07:55:33;;;;;;;1.70;1.05;;;;;;;15.24;62.04;92112.09;5030360;28;20045;-78
2024/04/02 07:57:59;;;;;;;1.40;1.05;;;;;;;14.32;68.76;92100.47;5015733;28;20135;-77
2024/04/02 08:00:24;;;;;;;2.88;1.30;;;;;;;13.45;76.22;92106.03;5029906;28;20497;-77
2024/04/02 08:02:50;;;;;;;1.60;1.20;;;;;;;13.14;72.80;92116.72;5028301;28;20098;-77
2024/04/02 08:05:16;;;;;;;3.47;1.00;;;;;;;12.57;71.54;92119.50;5027036;28;20038;-77
2024/04/02 08:07:45;;;;;;;2.80;1.40;;;;;;;12.28;85.19;92118.94;5009611;28;20041;-76
2024/04/02 08:10:12;;;;;;;7.65;2.50;;;;;;;12.20;88.09;92118.91;4999144;28;20487;-75
2024/04/02 08:12:37;;;;;;;1.60;1.20;;;;;;;11.88;91.41;92113.72;5011699;28;20037;-77
2024/04/02 08:15:03;;;;;;;2.95;1.33;;;;;;;11.63;94.68;92122.97;5011198;28;20064;-76
2024/04/02 08:17:29;;;;;;;1.83;1.15;;;;;;;11.64;95.56;92115.88;5031774;28;20044;-76
2024/04/02 08:19:55;;;;;;;2.25;1.20;;;;;;;11.67;92.56;92126.56;5015075;28;20056;-76
2024/04/02 08:22:21;;;;;;;2.03;1.20;;;;;;;11.85;78.90;92126.66;5032805;28;20049;-75
2024/04/02 08:24:49;;;;;;;3.72;1.30;;;;;;;11.88;96.73;92129.44;5032149;28;20029;-76
2024/04/02 08:27:15;;;;;;;5.30;1.10;;;;;;;11.69;92.22;92125.50;5032687;28;20475;-77
2024/04/02 08:29:41;;;;;;;1.65;1.10;;;;;;;11.68;95.41;92127.31;5032449;28;20046;-77
2024/04/02 08:32:07;;;;;;;8.50;3.47;;;;;;;11.38;94.86;92124.41;5033369;28;20041;-77
2024/04/02 08:34:33;;;;;;;1.20;1.10;;;;;;;11.51;95.83;92128.03;5033525;28;20056;-76
2024/04/02 08:36:59;;;;;;;3.40;1.00;;;;;;;11.67;92.29;92131.03;5012228;28;20084;-77
2024/04/02 08:39:25;;;;;;;5.93;1.30;;;;;;;11.46;83.60;92126.31;5013954;28;20042;-77
2024/04/02 08:41:57;;;;;;;1.77;1.13;;;;;;;11.34;91.18;92133.91;4996084;28;20382;-77
2024/04/02 08:44:23;;;;;;;1.73;1.17;;;;;;;11.49;99.19;92135.41;5013633;28;20128;-76
2024/04/02 08:46:50;;;;;;;2.70;1.40;;;;;;;11.30;95.46;92153.94;5027108;28;20112;-75
2024/04/02 08:49:18;;;;;;;1.23;0.98;;;;;;;11.22;92.69;92152.03;5025547;28;20498;-75
2024/04/02 08:51:44;;;;;;;0.80;0.80;;;;;;;11.19;91.32;92150.00;5024841;28;20100;-77
2024/04/02 08:54:10;;;;;;;1.67;1.13;;;;;;;11.37;76.95;92156.13;4999182;28;20574;-77
2024/04/02 08:56:35;;;;;;;1.38;1.00;;;;;;;11.38;97.01;92155.84;5018013;28;20040;-78
2024/04/02 08:59:03;;;;;;;0.77;0.75;;;;;;;10.95;77.60;92158.91;5035179;28;20037;-75
2024/04/02 09:01:30;;;;;;;1.40;1.17;;;;;;;11.18;91.23;92161.56;5032788;28;20033;-76
2024/04/02 09:03:58;;;;;;;2.08;1.20;;;;;;;11.04;100.00;92167.63;5032191;28;20029;-76
2024/04/02 09:06:23;;;;;;;1.85;1.20;;;;;;;10.84;100.00;92160.97;5034544;28;20482;-76
2024/04/02 09:08:49;;;;;;;2.03;1.08;;;;;;;10.96;78.31;92163.06;5052198;28;20032;-75
2024/04/02 09:11:15;;;;;;;2.17;1.27;;;;;;;11.51;81.53;92167.34;5053834;28;20426;-77
2024/04/02 09:13:41;;;;;;;1.65;1.20;;;;;;;11.60;83.66;92172.63;5056248;28;20045;-77
2024/04/02 09:16:07;;;;;;;2.28;1.00;;;;;;;11.84;69.91;92175.72;5020302;28;20391;-75
2024/04/02 09:18:37;;;;;;;2.38;1.02;;;;;;;11.88;68.60;92176.66;5019551;28;20132;-78
2024/04/02 09:21:03;;;;;;;1.92;1.27;;;;;;;12.19;81.98;92178.50;5055462;28;20047;-77
2024/04/02 09:23:29;;;;;;;1.75;1.05;;;;;;;12.02;73.39;92181.06;5054292;28;20025;-77
2024/04/02 09:25:56;;;;;;;1.85;1.23;;;;;;;11.99;89.69;92184.28;5054526;28;20036;-78
2024/04/02 09:28:22;;;;;;;2.38;1.40;;;;;;;12.16;100.00;92187.00;5043883;28;20037;-78
2024/04/02 09:30:47;;;;;;;2.03;1.40;;;;;;;11.81;98.16;92184.16;4998537;28;20144;-76
2024/04/02 09:33:16;;;;;;;1.58;1.20;;;;;;;11.95;93.01;92191.19;5027562;28;20471;-76
2024/04/02 09:35:59;;;;;;;1.95;1.20;;;;;;;12.12;96.67;92187.91;5031474;28;20041;-75
2024/04/02 09:38:27;;;;;;;1.15;0.98;;;;;;;12.27;94.67;92188.28;5013833;28;20110;-77
2024/04/02 09:40:54;;;;;;;3.88;1.67;;;;;;;12.41;85.29;92188.16;5032690;28;20104;-77
2024/04/02 09:43:20;;;;;;;1.92;1.30;;;;;;;12.32;88.31;92192.63;5031533;28;20415;-76
2024/04/02 09:45:48;;;;;;;2.58;1.20;;;;;;;12.40;93.12;92193.72;5031916;28;20552;-75
2024/04/02 09:48:14;;;;;;;1.52;1.00;;;;;;;12.52;82.94;92199.16;5034300;28;20440;-79
2024/04/02 09:50:42;;;;;;;1.45;1.08;;;;;;;12.67;90.36;92193.47;5034243;28;20045;-78
2024/04/02 09:53:10;;;;;;;1.67;1.30;;;;;;;12.96;90.52;92199.25;5035230;28;20104;-80
2024/04/02 09:55:36;;;;;;;1.90;1.27;;;;;;;13.33;87.92;92192.69;5013400;28;20038;-78
2024/04/02 09:58:02;;;;;;;2.80;1.00;;;;;;;13.31;77.74;92189.56;5012486;28;20391;-79
2024/04/02 10:00:31;;;;;;;1.10;1.00;;;;;;;13.38;84.26;92192.50;5011712;28;20087;-79
2024/04/02 10:03:01;;;;;;;2.40;1.50;;;;;;;13.04;90.69;92201.91;5032730;28;20407;-79
2024/04/02 10:05:26;;;;;;;4.75;2.08;;;;;;;12.96;84.96;92199.25;5029700;28;20064;-78
2024/04/02 10:07:54;;;;;;;2.08;1.40;;;;;;;12.97;88.24;92198.97;5015389;28;20387;-80
2024/04/02 10:10:28;;;;;;;1.85;1.15;;;;;;;12.97;90.11;92198.16;4999266;28;20402;-80
2024/04/02 10:12:53;;;;;;;2.28;1.23;;;;;;;12.88;88.93;92198.94;5031191;28;20529;-82
2024/04/02 10:15:19;;;;;;;4.10;1.13;;;;;;;12.96;84.81;92197.41;5015434;28;20037;-78
2024/04/02 10:17:45;;;;;;;5.95;2.47;;;;;;;12.99;86.22;92202.06;5031717;28;20099;-79
2024/04/02 10:20:17;;;;;;;2.88;1.20;;;;;;;12.95;80.95;92197.69;5036807;28;20049;-77
2024/04/02 10:22:43;;;;;;;;;;;;;;;12.94;82.02;92206.66;5005646;28;20026;-77
2024/04/02 10:25:11;;;;;;;3.95;1.10;;;;;;;13.08;73.60;92202.03;5018132;28;19917;-79
2024/04/02 10:27:36;;;;;;;2.28;1.20;;;;;;;13.12;77.71;92197.72;5035006;28;20083;-78
2024/04/02 10:30:15;;;;;;;5.07;1.35;;;;;;;13.35;82.75;92198.38;5017457;28;20041;-80
2024/04/02 10:32:42;;;;;;;1.40;0.90;;;;;;;13.38;80.03;92199.63;5014722;28;20053;-78
2024/04/02 10:35:18;;;;;;;1.45;0.95;;;;;;;13.31;75.02;92198.22;5018362;28;20037;-80
2024/04/02 10:37:45;;;;;;;1.52;1.08;;;;;;;13.00;71.01;92200.19;5004981;28;20495;-78
2024/04/02 10:40:11;;;;;;;1.88;1.25;;;;;;;13.53;71.35;92205.19;4994722;28;20042;-79
2024/04/02 10:42:38;;;;;;;2.33;1.10;;;;;;;13.75;74.54;92213.97;4992711;28;20117;-80
2024/04/02 10:45:07;;;;;;;0.70;0.70;;;;;;;13.77;60.40;92211.81;4990965;28;20038;-77
2024/04/02 10:47:33;;;;;;;1.05;0.80;;;;;;;14.12;55.57;92217.00;4998337;28;20069;-74
2024/04/02 10:49:59;;;;;;;0.73;0.70;;;;;;;14.35;46.72;92213.06;4990099;28;20411;-78
2024/04/02 10:52:24;;;;;;;2.22;0.98;;;;;;;14.69;57.35;92211.41;4992848;28;20085;-79
2024/04/02 10:54:50;;;;;;;1.75;1.00;;;;;;;14.56;54.45;92204.47;4988274;28;20129;-77
2024/04/02 10:57:16;;;;;;;0.85;0.85;;;;;;;14.65;51.39;92207.06;4992878;28;20098;-77
2024/04/02 10:59:43;;;;;;;1.10;0.90;;;;;;;14.82;56.09;92206.22;4992330;28;20042;-80
2024/04/02 11:02:29;;;;;;;1.95;1.05;;;;;;;14.86;49.53;92207.13;4976473;28;20042;-78
2024/04/02 11:04:56;;;;;;;1.98;0.90;;;;;;;14.96;45.94;92206.75;4992731;28;20050;-78
2024/04/02 11:07:25;;;;;;;3.63;1.05;;;;;;;15.07;49.21;92204.53;4992826;28;20400;-78
2024/04/02 11:09:51;;;;;;;0.90;0.88;;;;;;;15.16;54.46;92202.59;4992979;28;20140;-77
2024/04/02 11:12:16;;;;;;;2.55;1.00;;;;;;;14.85;51.03;92202.94;4987795;28;20061;-79
2024/04/02 11:14:42;;;;;;;0.93;0.73;;;;;;;14.58;50.20;92197.81;4991676;28;20049;-77
2024/04/02 11:17:08;;;;;;;0.77;0.70;;;;;;;14.33;45.87;92206.56;4972575;28;20057;-79
2024/04/02 11:19:36;;;;;;;1.35;0.82;;;;;;;14.20;52.37;92205.66;4991430;28;20034;-80
2024/04/02 11:24:58;;;;;;;4.20;1.17;;;;;;;14.12;51.01;92201.22;4991175;28;20046;-80
2024/04/02 11:27:25;;;;;;;1.63;0.90;;;;;;;14.24;46.37;92201.31;4992756;28;20047;-80
2024/04/02 11:29:52;;;;;;;2.95;1.15;;;;;;;14.20;49.18;92205.66;4994228;28;20522;-80
2024/04/02 11:32:18;;;;;;;0.80;0.80;;;;;;;14.00;46.06;92201.84;4975007;28;20414;-79